sensor_id;sensor_type;location;lat;lon;timestamp;temperature;humidity
64652;HTU21D;51062;45.120;37.660;2023-12-04T00:01:53;13.32;93.51
64652;HTU21D;51062;45.120;37.660;2023-12-04T00:04:19;13.34;93.56
64652;HTU21D;51062;45.120;37.660;2023-12-04T00:06:45;13.37;93.57
64652;HTU21D;51062;45.120;37.660;2023-12-04T00:09:10;13.39;93.59
64652;HTU21D;51062;45.120;37.660;2023-12-04T00:11:36;13.43;93.63
64652;HTU21D;51062;45.120;37.660;2023-12-04T00:14:02;13.44;93.57
64652;HTU21D;51062;45.120;37.660;2023-12-04T00:16:28;13.43;93.44
64652;HTU21D;51062;45.120;37.660;2023-12-04T00:18:54;13.40;93.36
64652;HTU21D;51062;45.120;37.660;2023-12-04T00:21:20;13.39;93.27
64652;HTU21D;51062;45.120;37.660;2023-12-04T00:23:46;13.39;93.19
64652;HTU21D;51062;45.120;37.660;2023-12-04T00:26:12;13.37;93.08
64652;HTU21D;51062;45.120;37.660;2023-12-04T00:28:38;13.36;92.92
64652;HTU21D;51062;45.120;37.660;2023-12-04T00:31:04;13.32;92.59
64652;HTU21D;51062;45.120;37.660;2023-12-04T00:33:30;13.26;92.30
64652;HTU21D;51062;45.120;37.660;2023-12-04T00:35:57;13.19;92.11
64652;HTU21D;51062;45.120;37.660;2023-12-04T00:38:23;13.15;92.11
64652;HTU21D;51062;45.120;37.660;2023-12-04T00:40:49;13.12;92.23
64652;HTU21D;51062;45.120;37.660;2023-12-04T00:43:15;13.09;92.30
64652;HTU21D;51062;45.120;37.660;2023-12-04T00:45:41;13.09;92.38
64652;HTU21D;51062;45.120;37.660;2023-12-04T00:48:07;13.08;92.44
64652;HTU21D;51062;45.120;37.660;2023-12-04T00:50:32;13.05;92.50
64652;HTU21D;51062;45.120;37.660;2023-12-04T00:52:58;13.01;92.53
64652;HTU21D;51062;45.120;37.660;2023-12-04T00:55:24;12.97;92.59
64652;HTU21D;51062;45.120;37.660;2023-12-04T00:57:50;12.94;92.65
64652;HTU21D;51062;45.120;37.660;2023-12-04T01:00:16;12.92;92.73
64652;HTU21D;51062;45.120;37.660;2023-12-04T01:02:42;12.90;92.85
64652;HTU21D;51062;45.120;37.660;2023-12-04T01:05:08;12.89;92.87
64652;HTU21D;51062;45.120;37.660;2023-12-04T01:07:34;12.90;92.93
64652;HTU21D;51062;45.120;37.660;2023-12-04T01:10:00;12.89;93.01
64652;HTU21D;51062;45.120;37.660;2023-12-04T01:12:26;12.90;93.06
64652;HTU21D;51062;45.120;37.660;2023-12-04T01:14:52;12.91;93.09
64652;HTU21D;51062;45.120;37.660;2023-12-04T01:17:18;12.92;93.14
64652;HTU21D;51062;45.120;37.660;2023-12-04T01:19:44;12.89;93.07
64652;HTU21D;51062;45.120;37.660;2023-12-04T01:22:10;12.88;93.03
64652;HTU21D;51062;45.120;37.660;2023-12-04T01:24:36;12.87;92.99
64652;HTU21D;51062;45.120;37.660;2023-12-04T01:27:02;12.87;92.97
64652;HTU21D;51062;45.120;37.660;2023-12-04T01:29:28;12.85;92.96
64652;HTU21D;51062;45.120;37.660;2023-12-04T01:31:54;12.81;92.92
64652;HTU21D;51062;45.120;37.660;2023-12-04T01:34:20;12.78;92.95
64652;HTU21D;51062;45.120;37.660;2023-12-04T01:36:46;12.74;92.89
64652;HTU21D;51062;45.120;37.660;2023-12-04T01:39:12;12.71;92.93
64652;HTU21D;51062;45.120;37.660;2023-12-04T01:41:38;12.70;92.92
64652;HTU21D;51062;45.120;37.660;2023-12-04T01:44:04;12.67;92.93
64652;HTU21D;51062;45.120;37.660;2023-12-04T01:46:30;12.63;92.89
64652;HTU21D;51062;45.120;37.660;2023-12-04T01:48:56;12.61;92.84
64652;HTU21D;51062;45.120;37.660;2023-12-04T01:51:22;12.58;92.78
64652;HTU21D;51062;45.120;37.660;2023-12-04T01:53:48;12.56;92.76
64652;HTU21D;51062;45.120;37.660;2023-12-04T01:56:15;12.53;92.75
64652;HTU21D;51062;45.120;37.660;2023-12-04T01:58:41;12.52;92.73
64652;HTU21D;51062;45.120;37.660;2023-12-04T02:01:07;12.51;92.74
64652;HTU21D;51062;45.120;37.660;2023-12-04T02:03:34;12.48;92.69
64652;HTU21D;51062;45.120;37.660;2023-12-04T02:06:01;12.46;92.66
64652;HTU21D;51062;45.120;37.660;2023-12-04T02:08:29;12.44;92.66
64652;HTU21D;51062;45.120;37.660;2023-12-04T02:10:55;12.42;92.58
64652;HTU21D;51062;45.120;37.660;2023-12-04T02:13:21;12.38;92.55
64652;HTU21D;51062;45.120;37.660;2023-12-04T02:15:48;12.33;92.55
64652;HTU21D;51062;45.120;37.660;2023-12-04T02:18:15;12.25;92.35
64652;HTU21D;51062;45.120;37.660;2023-12-04T02:20:42;12.16;92.34
64652;HTU21D;51062;45.120;37.660;2023-12-04T02:23:08;12.08;92.20
64652;HTU21D;51062;45.120;37.660;2023-12-04T02:25:34;11.98;92.06
64652;HTU21D;51062;45.120;37.660;2023-12-04T02:28:01;11.89;92.11
64652;HTU21D;51062;45.120;37.660;2023-12-04T02:30:28;11.79;91.98
64652;HTU21D;51062;45.120;37.660;2023-12-04T02:32:55;11.70;91.82
64652;HTU21D;51062;45.120;37.660;2023-12-04T02:35:22;11.61;91.84
64652;HTU21D;51062;45.120;37.660;2023-12-04T02:37:50;11.54;91.78
64652;HTU21D;51062;45.120;37.660;2023-12-04T02:40:16;11.46;91.70
64652;HTU21D;51062;45.120;37.660;2023-12-04T02:42:42;11.40;91.76
64652;HTU21D;51062;45.120;37.660;2023-12-04T02:45:08;11.36;91.81
64652;HTU21D;51062;45.120;37.660;2023-12-04T02:47:34;11.31;91.85
64652;HTU21D;51062;45.120;37.660;2023-12-04T02:50:00;11.28;91.84
64652;HTU21D;51062;45.120;37.660;2023-12-04T02:52:26;11.26;91.81
64652;HTU21D;51062;45.120;37.660;2023-12-04T02:54:52;11.18;91.84
64652;HTU21D;51062;45.120;37.660;2023-12-04T02:57:17;11.16;91.85
64652;HTU21D;51062;45.120;37.660;2023-12-04T02:59:43;11.14;91.81
64652;HTU21D;51062;45.120;37.660;2023-12-04T03:02:09;11.10;91.79
64652;HTU21D;51062;45.120;37.660;2023-12-04T03:04:35;11.09;91.84
64652;HTU21D;51062;45.120;37.660;2023-12-04T03:07:01;11.09;91.86
64652;HTU21D;51062;45.120;37.660;2023-12-04T03:09:27;11.08;91.77
64652;HTU21D;51062;45.120;37.660;2023-12-04T03:11:53;11.11;91.60
64652;HTU21D;51062;45.120;37.660;2023-12-04T03:14:19;11.10;91.56
64652;HTU21D;51062;45.120;37.660;2023-12-04T03:16:45;11.10;91.63
64652;HTU21D;51062;45.120;37.660;2023-12-04T03:19:10;11.09;91.66
64652;HTU21D;51062;45.120;37.660;2023-12-04T03:21:36;11.08;91.73
64652;HTU21D;51062;45.120;37.660;2023-12-04T03:24:02;11.08;91.76
64652;HTU21D;51062;45.120;37.660;2023-12-04T03:26:28;11.08;91.78
64652;HTU21D;51062;45.120;37.660;2023-12-04T03:28:54;11.08;91.71
64652;HTU21D;51062;45.120;37.660;2023-12-04T03:31:21;11.07;91.71
64652;HTU21D;51062;45.120;37.660;2023-12-04T03:33:47;11.05;91.69
64652;HTU21D;51062;45.120;37.660;2023-12-04T03:36:13;11.05;91.70
64652;HTU21D;51062;45.120;37.660;2023-12-04T03:38:38;11.03;91.68
64652;HTU21D;51062;45.120;37.660;2023-12-04T03:41:04;10.99;91.69
64652;HTU21D;51062;45.120;37.660;2023-12-04T03:43:30;10.98;91.75
64652;HTU21D;51062;45.120;37.660;2023-12-04T03:45:56;10.97;91.79
64652;HTU21D;51062;45.120;37.660;2023-12-04T03:48:22;10.97;91.84
64652;HTU21D;51062;45.120;37.660;2023-12-04T03:50:48;10.96;91.92
64652;HTU21D;51062;45.120;37.660;2023-12-04T03:53:14;10.98;91.96
64652;HTU21D;51062;45.120;37.660;2023-12-04T03:55:40;11.00;91.92
64652;HTU21D;51062;45.120;37.660;2023-12-04T03:58:05;11.01;91.88
64652;HTU21D;51062;45.120;37.660;2023-12-04T04:00:31;11.01;91.91
64652;HTU21D;51062;45.120;37.660;2023-12-04T04:02:57;11.05;91.87
64652;HTU21D;51062;45.120;37.660;2023-12-04T04:05:23;11.05;91.77
64652;HTU21D;51062;45.120;37.660;2023-12-04T04:07:49;11.05;91.68
64652;HTU21D;51062;45.120;37.660;2023-12-04T04:10:15;11.02;91.64
64652;HTU21D;51062;45.120;37.660;2023-12-04T04:12:41;11.00;91.58
64652;HTU21D;51062;45.120;37.660;2023-12-04T04:15:06;10.96;91.58
64652;HTU21D;51062;45.120;37.660;2023-12-04T04:17:32;10.90;91.57
64652;HTU21D;51062;45.120;37.660;2023-12-04T04:19:59;10.85;91.55
64652;HTU21D;51062;45.120;37.660;2023-12-04T04:22:25;10.82;91.60
64652;HTU21D;51062;45.120;37.660;2023-12-04T04:24:50;10.81;91.69
64652;HTU21D;51062;45.120;37.660;2023-12-04T04:27:16;10.79;91.77
64652;HTU21D;51062;45.120;37.660;2023-12-04T04:29:42;10.81;91.76
64652;HTU21D;51062;45.120;37.660;2023-12-04T04:32:08;10.78;91.63
64652;HTU21D;51062;45.120;37.660;2023-12-04T04:34:34;10.73;91.48
64652;HTU21D;51062;45.120;37.660;2023-12-04T04:37:00;10.67;91.50
64652;HTU21D;51062;45.120;37.660;2023-12-04T04:39:26;10.65;91.50
64652;HTU21D;51062;45.120;37.660;2023-12-04T04:41:51;10.65;91.47
64652;HTU21D;51062;45.120;37.660;2023-12-04T04:44:17;10.63;91.51
64652;HTU21D;51062;45.120;37.660;2023-12-04T04:46:43;10.60;91.60
64652;HTU21D;51062;45.120;37.660;2023-12-04T04:49:09;10.60;91.62
64652;HTU21D;51062;45.120;37.660;2023-12-04T04:51:35;10.58;91.64
64652;HTU21D;51062;45.120;37.660;2023-12-04T04:54:01;10.60;91.63
64652;HTU21D;51062;45.120;37.660;2023-12-04T04:56:27;10.59;91.58
64652;HTU21D;51062;45.120;37.660;2023-12-04T04:58:53;10.60;91.46
64652;HTU21D;51062;45.120;37.660;2023-12-04T05:01:19;10.59;91.31
64652;HTU21D;51062;45.120;37.660;2023-12-04T05:03:45;10.56;91.20
64652;HTU21D;51062;45.120;37.660;2023-12-04T05:06:11;10.56;91.19
64652;HTU21D;51062;45.120;37.660;2023-12-04T05:08:37;10.53;91.18
64652;HTU21D;51062;45.120;37.660;2023-12-04T05:11:02;10.53;91.25
64652;HTU21D;51062;45.120;37.660;2023-12-04T05:13:29;10.52;91.18
64652;HTU21D;51062;45.120;37.660;2023-12-04T05:15:55;10.49;91.08
64652;HTU21D;51062;45.120;37.660;2023-12-04T05:18:21;10.46;91.14
64652;HTU21D;51062;45.120;37.660;2023-12-04T05:20:46;10.45;91.18
64652;HTU21D;51062;45.120;37.660;2023-12-04T05:23:12;10.42;91.15
64652;HTU21D;51062;45.120;37.660;2023-12-04T05:25:38;10.40;91.20
64652;HTU21D;51062;45.120;37.660;2023-12-04T05:28:04;10.39;91.21
64652;HTU21D;51062;45.120;37.660;2023-12-04T05:30:30;10.37;91.27
64652;HTU21D;51062;45.120;37.660;2023-12-04T05:32:56;10.35;91.28
64652;HTU21D;51062;45.120;37.660;2023-12-04T05:35:22;10.33;91.24
64652;HTU21D;51062;45.120;37.660;2023-12-04T05:37:48;10.28;91.09
64652;HTU21D;51062;45.120;37.660;2023-12-04T05:40:16;10.25;91.04
64652;HTU21D;51062;45.120;37.660;2023-12-04T05:42:42;10.23;90.95
64652;HTU21D;51062;45.120;37.660;2023-12-04T05:45:08;10.19;90.90
64652;HTU21D;51062;45.120;37.660;2023-12-04T05:47:34;10.15;90.86
64652;HTU21D;51062;45.120;37.660;2023-12-04T05:50:00;10.11;90.93
64652;HTU21D;51062;45.120;37.660;2023-12-04T05:52:26;10.07;90.89
64652;HTU21D;51062;45.120;37.660;2023-12-04T05:54:52;9.99;90.91
64652;HTU21D;51062;45.120;37.660;2023-12-04T05:57:18;9.95;90.99
64652;HTU21D;51062;45.120;37.660;2023-12-04T05:59:44;9.92;91.08
64652;HTU21D;51062;45.120;37.660;2023-12-04T06:02:10;9.88;91.08
64652;HTU21D;51062;45.120;37.660;2023-12-04T06:04:36;9.85;91.19
64652;HTU21D;51062;45.120;37.660;2023-12-04T06:07:02;9.84;91.34
64652;HTU21D;51062;45.120;37.660;2023-12-04T06:09:27;9.86;91.40
64652;HTU21D;51062;45.120;37.660;2023-12-04T06:11:53;9.88;91.38
64652;HTU21D;51062;45.120;37.660;2023-12-04T06:14:19;9.86;91.41
64652;HTU21D;51062;45.120;37.660;2023-12-04T06:16:45;9.89;91.52
64652;HTU21D;51062;45.120;37.660;2023-12-04T06:19:11;9.90;91.53
64652;HTU21D;51062;45.120;37.660;2023-12-04T06:21:37;9.89;91.50
64652;HTU21D;51062;45.120;37.660;2023-12-04T06:24:03;9.89;91.49
64652;HTU21D;51062;45.120;37.660;2023-12-04T06:26:31;9.89;91.49
64652;HTU21D;51062;45.120;37.660;2023-12-04T06:28:57;9.91;91.53
64652;HTU21D;51062;45.120;37.660;2023-12-04T06:31:23;9.92;91.50
64652;HTU21D;51062;45.120;37.660;2023-12-04T06:33:49;9.90;91.42
64652;HTU21D;51062;45.120;37.660;2023-12-04T06:36:15;9.89;91.44
64652;HTU21D;51062;45.120;37.660;2023-12-04T06:38:42;9.89;91.50
64652;HTU21D;51062;45.120;37.660;2023-12-04T06:41:11;9.90;91.53
64652;HTU21D;51062;45.120;37.660;2023-12-04T06:43:37;9.92;91.56
64652;HTU21D;51062;45.120;37.660;2023-12-04T06:46:03;9.91;91.50
64652;HTU21D;51062;45.120;37.660;2023-12-04T06:48:29;9.92;91.53
64652;HTU21D;51062;45.120;37.660;2023-12-04T06:50:55;9.94;91.45
64652;HTU21D;51062;45.120;37.660;2023-12-04T06:53:21;9.94;91.31
64652;HTU21D;51062;45.120;37.660;2023-12-04T06:55:47;9.90;91.26
64652;HTU21D;51062;45.120;37.660;2023-12-04T06:58:13;9.88;91.18
64652;HTU21D;51062;45.120;37.660;2023-12-04T07:00:39;9.86;91.16
64652;HTU21D;51062;45.120;37.660;2023-12-04T07:03:05;9.86;91.18
64652;HTU21D;51062;45.120;37.660;2023-12-04T07:05:30;9.84;91.12
64652;HTU21D;51062;45.120;37.660;2023-12-04T07:07:56;9.83;91.03
64652;HTU21D;51062;45.120;37.660;2023-12-04T07:10:22;9.84;91.16
64652;HTU21D;51062;45.120;37.660;2023-12-04T07:12:49;9.86;91.35
64652;HTU21D;51062;45.120;37.660;2023-12-04T07:15:15;9.84;91.37
64652;HTU21D;51062;45.120;37.660;2023-12-04T07:17:41;9.81;91.34
64652;HTU21D;51062;45.120;37.660;2023-12-04T07:20:07;9.77;91.32
64652;HTU21D;51062;45.120;37.660;2023-12-04T07:22:33;9.74;91.41
64652;HTU21D;51062;45.120;37.660;2023-12-04T07:24:59;9.75;91.43
64652;HTU21D;51062;45.120;37.660;2023-12-04T07:27:25;9.74;91.34
64652;HTU21D;51062;45.120;37.660;2023-12-04T07:29:51;9.74;91.35
64652;HTU21D;51062;45.120;37.660;2023-12-04T07:32:17;9.72;91.34
64652;HTU21D;51062;45.120;37.660;2023-12-04T07:34:45;9.69;91.31
64652;HTU21D;51062;45.120;37.660;2023-12-04T07:37:11;9.67;91.35
64652;HTU21D;51062;45.120;37.660;2023-12-04T07:39:37;9.64;91.48
64652;HTU21D;51062;45.120;37.660;2023-12-04T07:42:03;9.63;91.47
64652;HTU21D;51062;45.120;37.660;2023-12-04T07:44:29;9.60;91.38
64652;HTU21D;51062;45.120;37.660;2023-12-04T07:46:55;9.55;91.46
64652;HTU21D;51062;45.120;37.660;2023-12-04T07:49:21;9.53;91.50
64652;HTU21D;51062;45.120;37.660;2023-12-04T07:51:47;9.51;91.51
64652;HTU21D;51062;45.120;37.660;2023-12-04T07:54:13;9.46;91.37
64652;HTU21D;51062;45.120;37.660;2023-12-04T07:56:39;9.38;91.37
64652;HTU21D;51062;45.120;37.660;2023-12-04T07:59:05;9.36;91.50
64652;HTU21D;51062;45.120;37.660;2023-12-04T08:01:31;9.33;91.43
64652;HTU21D;51062;45.120;37.660;2023-12-04T08:03:57;9.30;91.42
64652;HTU21D;51062;45.120;37.660;2023-12-04T08:06:22;9.25;91.30
64652;HTU21D;51062;45.120;37.660;2023-12-04T08:08:49;9.19;91.21
64652;HTU21D;51062;45.120;37.660;2023-12-04T08:11:15;9.12;91.11
64652;HTU21D;51062;45.120;37.660;2023-12-04T08:13:40;9.06;91.16
64652;HTU21D;51062;45.120;37.660;2023-12-04T08:16:15;9.02;91.21
64652;HTU21D;51062;45.120;37.660;2023-12-04T08:18:41;8.98;91.20
64652;HTU21D;51062;45.120;37.660;2023-12-04T08:21:08;8.95;91.18
64652;HTU21D;51062;45.120;37.660;2023-12-04T08:23:34;8.94;91.25
64652;HTU21D;51062;45.120;37.660;2023-12-04T08:26:00;8.93;91.11
64652;HTU21D;51062;45.120;37.660;2023-12-04T08:28:26;8.95;91.11
64652;HTU21D;51062;45.120;37.660;2023-12-04T08:30:52;8.92;90.88
64652;HTU21D;51062;45.120;37.660;2023-12-04T08:33:18;8.93;90.77
64652;HTU21D;51062;45.120;37.660;2023-12-04T08:35:46;8.91;90.81
64652;HTU21D;51062;45.120;37.660;2023-12-04T08:38:12;8.90;90.86
64652;HTU21D;51062;45.120;37.660;2023-12-04T08:40:38;8.92;90.90
64652;HTU21D;51062;45.120;37.660;2023-12-04T08:43:05;8.92;90.89
64652;HTU21D;51062;45.120;37.660;2023-12-04T08:45:31;8.95;90.95
64652;HTU21D;51062;45.120;37.660;2023-12-04T08:47:57;8.96;90.89
64652;HTU21D;51062;45.120;37.660;2023-12-04T08:50:23;8.98;90.82
64652;HTU21D;51062;45.120;37.660;2023-12-04T08:52:50;9.03;91.04
64652;HTU21D;51062;45.120;37.660;2023-12-04T08:55:17;9.04;91.32
64652;HTU21D;51062;45.120;37.660;2023-12-04T08:57:43;9.03;91.46
64652;HTU21D;51062;45.120;37.660;2023-12-04T09:00:09;9.06;91.44
64652;HTU21D;51062;45.120;37.660;2023-12-04T09:02:35;9.06;91.48
64652;HTU21D;51062;45.120;37.660;2023-12-04T09:05:01;9.06;91.48
64652;HTU21D;51062;45.120;37.660;2023-12-04T09:07:27;9.09;91.61
64652;HTU21D;51062;45.120;37.660;2023-12-04T09:09:53;9.10;91.65
64652;HTU21D;51062;45.120;37.660;2023-12-04T09:12:19;9.10;91.69
64652;HTU21D;51062;45.120;37.660;2023-12-04T09:14:45;9.14;91.63
64652;HTU21D;51062;45.120;37.660;2023-12-04T09:17:11;9.16;91.66
64652;HTU21D;51062;45.120;37.660;2023-12-04T09:19:37;9.16;91.42
64652;HTU21D;51062;45.120;37.660;2023-12-04T09:22:03;9.12;90.99
64652;HTU21D;51062;45.120;37.660;2023-12-04T09:24:28;9.07;90.97
64652;HTU21D;51062;45.120;37.660;2023-12-04T09:26:56;9.04;91.04
64652;HTU21D;51062;45.120;37.660;2023-12-04T09:29:22;9.03;91.07
64652;HTU21D;51062;45.120;37.660;2023-12-04T09:31:50;9.05;91.21
64652;HTU21D;51062;45.120;37.660;2023-12-04T09:34:16;9.06;91.35
64652;HTU21D;51062;45.120;37.660;2023-12-04T09:36:43;9.03;91.33
64652;HTU21D;51062;45.120;37.660;2023-12-04T09:39:09;8.97;91.27
64652;HTU21D;51062;45.120;37.660;2023-12-04T09:41:36;8.94;91.50
64652;HTU21D;51062;45.120;37.660;2023-12-04T09:44:02;8.98;91.60
64652;HTU21D;51062;45.120;37.660;2023-12-04T09:46:28;9.00;91.59
64652;HTU21D;51062;45.120;37.660;2023-12-04T09:48:54;9.02;91.40
64652;HTU21D;51062;45.120;37.660;2023-12-04T09:51:22;9.04;91.27
64652;HTU21D;51062;45.120;37.660;2023-12-04T09:53:48;9.05;91.36
64652;HTU21D;51062;45.120;37.660;2023-12-04T09:56:14;9.05;91.52
64652;HTU21D;51062;45.120;37.660;2023-12-04T09:58:41;9.04;91.56
64652;HTU21D;51062;45.120;37.660;2023-12-04T10:01:07;9.03;91.47
64652;HTU21D;51062;45.120;37.660;2023-12-04T10:03:34;9.01;91.37
64652;HTU21D;51062;45.120;37.660;2023-12-04T10:06:00;8.97;91.08
64652;HTU21D;51062;45.120;37.660;2023-12-04T10:08:26;8.90;90.79
64652;HTU21D;51062;45.120;37.660;2023-12-04T10:10:52;8.85;90.73
64652;HTU21D;51062;45.120;37.660;2023-12-04T10:13:18;8.79;90.73
64652;HTU21D;51062;45.120;37.660;2023-12-04T10:15:47;8.76;90.80
64652;HTU21D;51062;45.120;37.660;2023-12-04T10:18:26;8.71;90.73
64652;HTU21D;51062;45.120;37.660;2023-12-04T10:20:55;8.66;90.44
64652;HTU21D;51062;45.120;37.660;2023-12-04T10:23:21;8.62;90.40
64652;HTU21D;51062;45.120;37.660;2023-12-04T10:25:50;8.58;90.34
64652;HTU21D;51062;45.120;37.660;2023-12-04T10:28:16;8.53;90.41
64652;HTU21D;51062;45.120;37.660;2023-12-04T10:30:42;8.49;90.47
64652;HTU21D;51062;45.120;37.660;2023-12-04T10:33:09;8.45;90.41
64652;HTU21D;51062;45.120;37.660;2023-12-04T10:35:35;8.42;90.52
64652;HTU21D;51062;45.120;37.660;2023-12-04T10:38:05;8.41;90.52
64652;HTU21D;51062;45.120;37.660;2023-12-04T10:40:32;8.38;90.50
64652;HTU21D;51062;45.120;37.660;2023-12-04T10:43:17;8.36;90.43
64652;HTU21D;51062;45.120;37.660;2023-12-04T10:45:44;8.37;90.26
64652;HTU21D;51062;45.120;37.660;2023-12-04T10:48:14;8.35;90.08
64652;HTU21D;51062;45.120;37.660;2023-12-04T10:50:41;8.34;90.05
64652;HTU21D;51062;45.120;37.660;2023-12-04T10:53:08;8.30;89.74
64652;HTU21D;51062;45.120;37.660;2023-12-04T10:55:34;8.27;89.53
64652;HTU21D;51062;45.120;37.660;2023-12-04T10:58:08;8.23;89.39
64652;HTU21D;51062;45.120;37.660;2023-12-04T11:00:35;8.22;89.52
64652;HTU21D;51062;45.120;37.660;2023-12-04T11:03:03;8.19;89.52
64652;HTU21D;51062;45.120;37.660;2023-12-04T11:05:30;8.17;89.38
64652;HTU21D;51062;45.120;37.660;2023-12-04T11:07:57;8.16;89.54
64652;HTU21D;51062;45.120;37.660;2023-12-04T11:10:24;8.14;89.64
64652;HTU21D;51062;45.120;37.660;2023-12-04T11:12:56;8.13;89.48
64652;HTU21D;51062;45.120;37.660;2023-12-04T11:15:23;8.09;89.53
64652;HTU21D;51062;45.120;37.660;2023-12-04T11:17:51;8.07;89.68
64652;HTU21D;51062;45.120;37.660;2023-12-04T11:20:19;8.03;89.44
64652;HTU21D;51062;45.120;37.660;2023-12-04T11:22:47;8.00;89.43
64652;HTU21D;51062;45.120;37.660;2023-12-04T11:25:14;7.94;89.30
64652;HTU21D;51062;45.120;37.660;2023-12-04T11:27:40;7.92;89.37
64652;HTU21D;51062;45.120;37.660;2023-12-04T11:30:06;7.91;89.45
64652;HTU21D;51062;45.120;37.660;2023-12-04T11:32:37;7.88;89.43
64652;HTU21D;51062;45.120;37.660;2023-12-04T11:35:12;7.85;89.38
64652;HTU21D;51062;45.120;37.660;2023-12-04T11:37:38;7.83;89.52
64652;HTU21D;51062;45.120;37.660;2023-12-04T11:40:04;7.81;89.67
64652;HTU21D;51062;45.120;37.660;2023-12-04T11:42:30;7.82;89.79
64652;HTU21D;51062;45.120;37.660;2023-12-04T11:44:59;7.82;89.92
64652;HTU21D;51062;45.120;37.660;2023-12-04T11:47:25;7.83;90.02
64652;HTU21D;51062;45.120;37.660;2023-12-04T11:49:53;7.84;90.05
64652;HTU21D;51062;45.120;37.660;2023-12-04T11:52:33;7.84;89.99
64652;HTU21D;51062;45.120;37.660;2023-12-04T11:57:26;7.85;90.42
64652;HTU21D;51062;45.120;37.660;2023-12-04T12:00:07;7.84;90.38
64652;HTU21D;51062;45.120;37.660;2023-12-04T12:02:38;7.84;90.25
64652;HTU21D;51062;45.120;37.660;2023-12-04T12:05:05;7.83;90.18
64652;HTU21D;51062;45.120;37.660;2023-12-04T12:07:33;7.79;90.03
64652;HTU21D;51062;45.120;37.660;2023-12-04T12:09:59;7.78;89.87
64652;HTU21D;51062;45.120;37.660;2023-12-04T12:12:25;7.75;89.83
64652;HTU21D;51062;45.120;37.660;2023-12-04T12:14:52;7.74;89.89
64652;HTU21D;51062;45.120;37.660;2023-12-04T12:17:18;7.71;89.71
64652;HTU21D;51062;45.120;37.660;2023-12-04T12:19:44;7.67;89.59
64652;HTU21D;51062;45.120;37.660;2023-12-04T12:22:10;7.63;89.62
64652;HTU21D;51062;45.120;37.660;2023-12-04T12:24:35;7.58;89.52
64652;HTU21D;51062;45.120;37.660;2023-12-04T12:27:01;7.55;89.64
64652;HTU21D;51062;45.120;37.660;2023-12-04T12:29:27;7.53;89.79
64652;HTU21D;51062;45.120;37.660;2023-12-04T12:31:53;7.52;89.93
64652;HTU21D;51062;45.120;37.660;2023-12-04T12:34:19;7.53;90.09
64652;HTU21D;51062;45.120;37.660;2023-12-04T12:36:46;7.52;90.11
64652;HTU21D;51062;45.120;37.660;2023-12-04T12:39:13;7.52;90.05
64652;HTU21D;51062;45.120;37.660;2023-12-04T12:41:38;7.48;90.08
64652;HTU21D;51062;45.120;37.660;2023-12-04T12:44:05;7.49;90.17
64652;HTU21D;51062;45.120;37.660;2023-12-04T12:46:31;7.50;90.26
64652;HTU21D;51062;45.120;37.660;2023-12-04T12:48:57;7.53;90.27
64652;HTU21D;51062;45.120;37.660;2023-12-04T12:51:24;7.55;90.25
64652;HTU21D;51062;45.120;37.660;2023-12-04T12:53:49;7.56;90.22
64652;HTU21D;51062;45.120;37.660;2023-12-04T12:56:16;7.57;90.24
64652;HTU21D;51062;45.120;37.660;2023-12-04T12:58:42;7.58;90.29
64652;HTU21D;51062;45.120;37.660;2023-12-04T13:01:11;7.57;90.19
64652;HTU21D;51062;45.120;37.660;2023-12-04T13:03:37;7.56;90.15
64652;HTU21D;51062;45.120;37.660;2023-12-04T13:06:03;7.54;89.93
64652;HTU21D;51062;45.120;37.660;2023-12-04T13:08:30;7.48;89.79
64652;HTU21D;51062;45.120;37.660;2023-12-04T13:10:56;7.42;89.74
64652;HTU21D;51062;45.120;37.660;2023-12-04T13:13:21;7.37;89.63
64652;HTU21D;51062;45.120;37.660;2023-12-04T13:15:47;7.29;89.60
64652;HTU21D;51062;45.120;37.660;2023-12-04T13:18:14;7.23;89.57
64652;HTU21D;51062;45.120;37.660;2023-12-04T13:20:40;7.17;89.67
64652;HTU21D;51062;45.120;37.660;2023-12-04T13:23:06;7.13;89.70
64652;HTU21D;51062;45.120;37.660;2023-12-04T13:25:32;7.09;89.82
64652;HTU21D;51062;45.120;37.660;2023-12-04T13:27:57;7.11;89.95
64652;HTU21D;51062;45.120;37.660;2023-12-04T13:30:23;7.09;90.03
64652;HTU21D;51062;45.120;37.660;2023-12-04T13:32:49;7.10;89.97
64652;HTU21D;51062;45.120;37.660;2023-12-04T13:35:16;7.05;89.88
64652;HTU21D;51062;45.120;37.660;2023-12-04T13:37:41;7.03;89.91
64652;HTU21D;51062;45.120;37.660;2023-12-04T13:40:09;7.01;89.96
64652;HTU21D;51062;45.120;37.660;2023-12-04T13:42:41;6.99;89.88
64652;HTU21D;51062;45.120;37.660;2023-12-04T13:45:25;6.95;89.94
64652;HTU21D;51062;45.120;37.660;2023-12-04T13:47:51;6.95;89.89
64652;HTU21D;51062;45.120;37.660;2023-12-04T13:50:18;6.90;89.79
64652;HTU21D;51062;45.120;37.660;2023-12-04T13:52:44;6.87;89.71
64652;HTU21D;51062;45.120;37.660;2023-12-04T13:55:10;6.82;89.75
64652;HTU21D;51062;45.120;37.660;2023-12-04T13:57:46;6.82;89.79
64652;HTU21D;51062;45.120;37.660;2023-12-04T14:00:36;6.81;89.79
64652;HTU21D;51062;45.120;37.660;2023-12-04T14:03:03;6.76;89.64
64652;HTU21D;51062;45.120;37.660;2023-12-04T14:05:33;6.73;89.63
64652;HTU21D;51062;45.120;37.660;2023-12-04T14:07:59;6.72;89.66
64652;HTU21D;51062;45.120;37.660;2023-12-04T14:10:26;6.70;89.64
64652;HTU21D;51062;45.120;37.660;2023-12-04T14:12:52;6.69;89.57
64652;HTU21D;51062;45.120;37.660;2023-12-04T14:15:19;6.66;89.40
64652;HTU21D;51062;45.120;37.660;2023-12-04T14:17:45;6.60;89.21
64652;HTU21D;51062;45.120;37.660;2023-12-04T14:20:12;6.56;88.93
64652;HTU21D;51062;45.120;37.660;2023-12-04T14:22:44;6.49;88.78
64652;HTU21D;51062;45.120;37.660;2023-12-04T14:25:11;6.42;88.58
64652;HTU21D;51062;45.120;37.660;2023-12-04T14:27:37;6.36;88.66
64652;HTU21D;51062;45.120;37.660;2023-12-04T14:30:09;6.30;88.67
64652;HTU21D;51062;45.120;37.660;2023-12-04T14:32:35;6.26;88.81
64652;HTU21D;51062;45.120;37.660;2023-12-04T14:35:02;6.21;88.65
64652;HTU21D;51062;45.120;37.660;2023-12-04T14:37:28;6.13;88.68
64652;HTU21D;51062;45.120;37.660;2023-12-04T14:39:54;6.10;88.88
64652;HTU21D;51062;45.120;37.660;2023-12-04T14:42:20;6.07;89.02
64652;HTU21D;51062;45.120;37.660;2023-12-04T14:44:46;6.06;89.00
64652;HTU21D;51062;45.120;37.660;2023-12-04T14:47:12;6.01;89.11
64652;HTU21D;51062;45.120;37.660;2023-12-04T14:49:38;6.00;89.28
64652;HTU21D;51062;45.120;37.660;2023-12-04T14:52:04;5.98;89.30
64652;HTU21D;51062;45.120;37.660;2023-12-04T14:54:32;5.95;89.32
64652;HTU21D;51062;45.120;37.660;2023-12-04T14:57:10;5.92;89.37
64652;HTU21D;51062;45.120;37.660;2023-12-04T14:59:45;5.91;89.51
64652;HTU21D;51062;45.120;37.660;2023-12-04T15:02:33;5.89;89.59
64652;HTU21D;51062;45.120;37.660;2023-12-04T15:05:05;5.89;89.70
64652;HTU21D;51062;45.120;37.660;2023-12-04T15:08:06;5.85;89.61
64652;HTU21D;51062;45.120;37.660;2023-12-04T15:10:32;5.81;89.64